sensor_id;sensor_type;location;lat;lon;timestamp;pressure;altitude;pressure_sealevel;temperature;humidity
62976;BME280;49071;0.000;0.000;2023-02-23T06:17:26;100630.38;;;16.63;35.34
62976;BME280;49071;0.000;0.000;2023-02-23T06:20:26;100632.56;;;16.74;35.25
62976;BME280;49071;0.000;0.000;2023-02-23T06:23:27;100634.09;;;16.80;35.18
62976;BME280;49071;0.000;0.000;2023-02-23T06:26:27;100634.94;;;16.80;34.98
62976;BME280;49071;0.000;0.000;2023-02-23T06:29:27;100642.53;;;16.86;34.83
62976;BME280;49071;0.000;0.000;2023-02-23T06:32:28;100645.09;;;16.88;35.02
62976;BME280;49071;0.000;0.000;2023-02-23T06:35:28;100641.59;;;16.87;35.09
62976;BME280;49071;0.000;0.000;2023-02-23T06:38:28;100640.75;;;16.87;35.12
62976;BME280;49071;0.000;0.000;2023-02-23T06:41:28;100646.94;;;16.86;34.95
62976;BME280;49071;0.000;0.000;2023-02-23T06:44:30;100648.75;;;16.84;34.93
62976;BME280;49071;0.000;0.000;2023-02-23T06:47:30;100647.97;;;16.82;35.11
62976;BME280;49071;0.000;0.000;2023-02-23T06:50:30;100656.69;;;16.82;35.34
62976;BME280;49071;0.000;0.000;2023-02-23T06:53:31;100655.59;;;16.88;35.24
62976;BME280;49071;0.000;0.000;2023-02-23T06:56:32;100662.00;;;17.01;35.19
62976;BME280;49071;0.000;0.000;2023-02-23T06:59:32;100654.56;;;17.11;35.06
62976;BME280;49071;0.000;0.000;2023-02-23T07:02:32;100653.06;;;17.26;35.02
62976;BME280;49071;0.000;0.000;2023-02-23T07:05:35;100661.44;;;17.34;34.56
62976;BME280;49071;0.000;0.000;2023-02-23T07:08:36;100659.69;;;17.53;34.42
62976;BME280;49071;0.000;0.000;2023-02-23T07:11:36;100649.16;;;17.74;34.11
62976;BME280;49071;0.000;0.000;2023-02-23T07:14:36;100653.78;;;17.87;33.74
62976;BME280;49071;0.000;0.000;2023-02-23T07:17:36;100656.53;;;18.03;33.91
62976;BME280;49071;0.000;0.000;2023-02-23T07:20:36;100647.50;;;18.09;33.56
62976;BME280;49071;0.000;0.000;2023-02-23T07:23:37;100654.41;;;18.11;33.41
62976;BME280;49071;0.000;0.000;2023-02-23T07:26:37;100647.47;;;18.10;33.27
62976;BME280;49071;0.000;0.000;2023-02-23T07:29:39;100646.75;;;18.07;33.45
62976;BME280;49071;0.000;0.000;2023-02-23T07:32:40;100643.06;;;18.11;33.34
62976;BME280;49071;0.000;0.000;2023-02-23T07:35:40;100641.91;;;18.16;33.16
62976;BME280;49071;0.000;0.000;2023-02-23T07:38:42;100645.81;;;18.27;33.44
62976;BME280;49071;0.000;0.000;2023-02-23T07:41:42;100640.03;;;18.37;33.10
62976;BME280;49071;0.000;0.000;2023-02-23T07:44:43;100636.00;;;18.48;33.00
62976;BME280;49071;0.000;0.000;2023-02-23T07:47:43;100633.84;;;18.56;32.65
62976;BME280;49071;0.000;0.000;2023-02-23T07:50:43;100631.34;;;18.72;32.78
62976;BME280;49071;0.000;0.000;2023-02-23T07:53:44;100630.78;;;18.82;32.79
62976;BME280;49071;0.000;0.000;2023-02-23T07:56:44;100635.59;;;18.92;32.59
62976;BME280;49071;0.000;0.000;2023-02-23T07:59:45;100631.41;;;19.05;32.47
62976;BME280;49071;0.000;0.000;2023-02-23T08:02:46;100623.34;;;19.08;32.53
62976;BME280;49071;0.000;0.000;2023-02-23T08:05:46;100623.41;;;19.06;32.50
62976;BME280;49071;0.000;0.000;2023-02-23T08:08:46;100632.25;;;19.05;32.36
62976;BME280;49071;0.000;0.000;2023-02-23T08:11:46;100624.75;;;18.98;32.51
62976;BME280;49071;0.000;0.000;2023-02-23T08:14:46;100624.91;;;18.95;32.34
62976;BME280;49071;0.000;0.000;2023-02-23T08:17:47;100624.13;;;18.93;32.46
62976;BME280;49071;0.000;0.000;2023-02-23T08:20:47;100620.50;;;18.95;32.54
62976;BME280;49071;0.000;0.000;2023-02-23T08:23:47;100613.47;;;18.96;32.40
62976;BME280;49071;0.000;0.000;2023-02-23T08:26:47;100613.31;;;18.99;32.52
62976;BME280;49071;0.000;0.000;2023-02-23T08:29:49;100613.94;;;19.04;32.29
62976;BME280;49071;0.000;0.000;2023-02-23T08:32:51;100618.16;;;19.06;32.07
62976;BME280;49071;0.000;0.000;2023-02-23T08:35:51;100615.06;;;19.16;32.33
62976;BME280;49071;0.000;0.000;2023-02-23T08:38:52;100613.88;;;19.21;32.24
62976;BME280;49071;0.000;0.000;2023-02-23T08:41:56;100613.56;;;19.27;32.10
62976;BME280;49071;0.000;0.000;2023-02-23T08:44:56;100613.16;;;19.35;32.11
62976;BME280;49071;0.000;0.000;2023-02-23T08:47:58;100605.31;;;19.33;32.23
62976;BME280;49071;0.000;0.000;2023-02-23T08:50:58;100615.84;;;19.33;32.27
62976;BME280;49071;0.000;0.000;2023-02-23T08:53:58;100610.59;;;19.33;32.18
62976;BME280;49071;0.000;0.000;2023-02-23T08:56:59;100611.00;;;19.26;32.21
62976;BME280;49071;0.000;0.000;2023-02-23T08:59:59;100610.56;;;19.18;32.35
62976;BME280;49071;0.000;0.000;2023-02-23T09:03:00;100612.69;;;19.11;32.09
62976;BME280;49071;0.000;0.000;2023-02-23T09:06:11;100602.63;;;19.02;32.51
62976;BME280;49071;0.000;0.000;2023-02-23T09:09:12;100602.19;;;18.94;32.52
62976;BME280;49071;0.000;0.000;2023-02-23T09:12:12;100602.66;;;18.84;32.40
62976;BME280;49071;0.000;0.000;2023-02-23T09:15:12;100602.28;;;18.75;32.84
62976;BME280;49071;0.000;0.000;2023-02-23T09:18:12;100598.31;;;18.66;32.68
62976;BME280;49071;0.000;0.000;2023-02-23T09:21:14;100607.28;;;18.62;33.00
62976;BME280;49071;0.000;0.000;2023-02-23T09:24:18;100604.75;;;18.60;33.01
62976;BME280;49071;0.000;0.000;2023-02-23T09:27:19;100604.09;;;18.55;33.36
62976;BME280;49071;0.000;0.000;2023-02-23T09:30:19;100607.56;;;18.56;33.28
62976;BME280;49071;0.000;0.000;2023-02-23T09:33:20;100603.19;;;18.56;33.38
62976;BME280;49071;0.000;0.000;2023-02-23T09:36:22;100603.00;;;18.59;33.40
62976;BME280;49071;0.000;0.000;2023-02-23T09:39:22;100603.94;;;18.58;33.52
62976;BME280;49071;0.000;0.000;2023-02-23T09:42:29;100601.88;;;18.65;33.24
62976;BME280;49071;0.000;0.000;2023-02-23T09:45:40;100599.88;;;18.70;32.94
62976;BME280;49071;0.000;0.000;2023-02-23T09:48:41;100601.44;;;18.74;32.87
62976;BME280;49071;0.000;0.000;2023-02-23T09:51:43;100596.88;;;18.78;33.13
62976;BME280;49071;0.000;0.000;2023-02-23T09:54:47;100615.66;;;18.87;33.18
62976;BME280;49071;0.000;0.000;2023-02-23T09:57:48;100608.16;;;18.97;33.12
62976;BME280;49071;0.000;0.000;2023-02-23T10:01:04;100609.38;;;19.07;33.16
62976;BME280;49071;0.000;0.000;2023-02-23T10:07:33;100604.81;;;19.27;32.64
62976;BME280;49071;0.000;0.000;2023-02-23T10:10:43;100601.09;;;19.31;32.62
62976;BME280;49071;0.000;0.000;2023-02-23T10:20:12;100602.38;;;19.24;32.40
62976;BME280;49071;0.000;0.000;2023-02-23T10:23:17;100600.06;;;19.18;32.55
62976;BME280;49071;0.000;0.000;2023-02-23T10:26:21;100598.53;;;19.14;32.70
62976;BME280;49071;0.000;0.000;2023-02-23T10:29:27;100596.22;;;19.07;32.89
62976;BME280;49071;0.000;0.000;2023-02-23T10:32:46;100595.06;;;18.96;33.05
62976;BME280;49071;0.000;0.000;2023-02-23T10:35:47;100591.16;;;18.87;32.91
62976;BME280;49071;0.000;0.000;2023-02-23T10:38:49;100593.31;;;18.79;32.96
62976;BME280;49071;0.000;0.000;2023-02-23T10:41:49;100588.16;;;18.77;33.24
62976;BME280;49071;0.000;0.000;2023-02-23T10:44:50;100587.22;;;18.78;33.16
62976;BME280;49071;0.000;0.000;2023-02-23T10:47:57;100571.28;;;18.64;33.89
62976;BME280;49071;0.000;0.000;2023-02-23T10:50:59;100580.41;;;18.57;33.64
62976;BME280;49071;0.000;0.000;2023-02-23T10:57:24;100573.44;;;18.56;33.84
62976;BME280;49071;0.000;0.000;2023-02-23T11:00:26;100570.66;;;18.59;33.71
62976;BME280;49071;0.000;0.000;2023-02-23T11:03:34;100563.56;;;18.61;33.86
62976;BME280;49071;0.000;0.000;2023-02-23T11:06:36;100561.72;;;18.63;33.88
62976;BME280;49071;0.000;0.000;2023-02-23T11:09:39;100564.00;;;18.69;34.01
62976;BME280;49071;0.000;0.000;2023-02-23T11:12:40;100556.78;;;18.74;33.82
62976;BME280;49071;0.000;0.000;2023-02-23T11:15:43;100559.09;;;18.80;33.55
62976;BME280;49071;0.000;0.000;2023-02-23T11:19:18;100550.84;;;18.86;33.48
62976;BME280;49071;0.000;0.000;2023-02-23T11:22:17;100553.09;;;18.94;33.26
62976;BME280;49071;0.000;0.000;2023-02-23T11:28:26;100547.78;;;19.11;33.30
62976;BME280;49071;0.000;0.000;2023-02-23T11:31:32;100543.75;;;19.22;33.31
62976;BME280;49071;0.000;0.000;2023-02-23T11:34:35;100541.47;;;19.31;33.05
62976;BME280;49071;0.000;0.000;2023-02-23T11:37:42;100534.31;;;19.33;33.07
62976;BME280;49071;0.000;0.000;2023-02-23T11:40:42;100529.06;;;19.33;33.02
62976;BME280;49071;0.000;0.000;2023-02-23T11:43:57;100529.06;;;19.33;32.84
62976;BME280;49071;0.000;0.000;2023-02-23T11:46:58;100532.72;;;19.31;32.88
62976;BME280;49071;0.000;0.000;2023-02-23T11:50:00;100530.16;;;19.29;32.91
62976;BME280;49071;0.000;0.000;2023-02-23T11:53:03;100529.59;;;19.24;33.19
62976;BME280;49071;0.000;0.000;2023-02-23T11:56:04;100524.72;;;19.17;33.12
62976;BME280;49071;0.000;0.000;2023-02-23T11:59:15;100517.19;;;19.10;33.10
62976;BME280;49071;0.000;0.000;2023-02-23T12:02:21;100521.94;;;19.04;33.07
62976;BME280;49071;0.000;0.000;2023-02-23T12:05:25;100518.78;;;18.97;33.48
62976;BME280;49071;0.000;0.000;2023-02-23T12:08:41;100515.78;;;18.87;33.12
62976;BME280;49071;0.000;0.000;2023-02-23T12:11:45;100504.50;;;18.85;33.34
62976;BME280;49071;0.000;0.000;2023-02-23T12:14:48;100501.81;;;18.87;33.41
62976;BME280;49071;0.000;0.000;2023-02-23T12:17:52;100504.28;;;18.90;33.65
62976;BME280;49071;0.000;0.000;2023-02-23T12:20:55;100496.28;;;18.92;33.52
62976;BME280;49071;0.000;0.000;2023-02-23T12:24:02;100499.53;;;18.97;33.45
62976;BME280;49071;0.000;0.000;2023-02-23T12:30:27;100489.44;;;19.05;33.16
62976;BME280;49071;0.000;0.000;2023-02-23T12:33:35;100490.81;;;19.12;33.41
62976;BME280;49071;0.000;0.000;2023-02-23T12:36:41;100482.59;;;19.18;33.30
62976;BME280;49071;0.000;0.000;2023-02-23T12:39:44;100485.56;;;19.28;33.17
62976;BME280;49071;0.000;0.000;2023-02-23T12:42:57;100481.81;;;19.32;33.27
62976;BME280;49071;0.000;0.000;2023-02-23T12:46:01;100477.13;;;19.37;32.96
62976;BME280;49071;0.000;0.000;2023-02-23T12:52:17;100472.25;;;19.31;32.97
62976;BME280;49071;0.000;0.000;2023-02-23T13:02:22;100466.03;;;19.16;33.30
62976;BME280;49071;0.000;0.000;2023-02-23T13:05:22;100461.97;;;19.10;33.12
62976;BME280;49071;0.000;0.000;2023-02-23T13:14:31;100464.84;;;18.90;33.68
62976;BME280;49071;0.000;0.000;2023-02-23T13:17:43;100456.50;;;18.82;33.86
62976;BME280;49071;0.000;0.000;2023-02-23T13:20:48;100454.31;;;18.74;34.06
62976;BME280;49071;0.000;0.000;2023-02-23T13:27:01;100445.59;;;18.56;34.11
62976;BME280;49071;0.000;0.000;2023-02-23T13:30:07;100445.97;;;18.49;34.21
62976;BME280;49071;0.000;0.000;2023-02-23T13:33:13;100437.50;;;18.44;34.41
62976;BME280;49071;0.000;0.000;2023-02-23T13:36:14;100442.81;;;18.42;34.45
62976;BME280;49071;0.000;0.000;2023-02-23T13:42:38;100437.34;;;18.47;34.14
62976;BME280;49071;0.000;0.000;2023-02-23T13:48:50;100434.16;;;18.57;34.10
62976;BME280;49071;0.000;0.000;2023-02-23T13:51:54;100438.31;;;18.61;33.97
62976;BME280;49071;0.000;0.000;2023-02-23T13:54:56;100435.25;;;18.69;33.86
62976;BME280;49071;0.000;0.000;2023-02-23T13:58:04;100437.53;;;18.77;33.90
62976;BME280;49071;0.000;0.000;2023-02-23T14:01:08;100433.53;;;18.85;33.83
62976;BME280;49071;0.000;0.000;2023-02-23T14:04:12;100428.91;;;18.91;33.92
62976;BME280;49071;0.000;0.000;2023-02-23T14:07:17;100430.94;;;19.01;33.89
62976;BME280;49071;0.000;0.000;2023-02-23T14:10:24;100437.38;;;19.11;33.49
62976;BME280;49071;0.000;0.000;2023-02-23T14:13:30;100429.22;;;19.16;33.68
62976;BME280;49071;0.000;0.000;2023-02-23T14:16:30;100430.75;;;19.20;33.70
62976;BME280;49071;0.000;0.000;2023-02-23T14:19:37;100437.78;;;19.20;33.75
62976;BME280;49071;0.000;0.000;2023-02-23T14:29:22;100426.94;;;19.10;33.90
62976;BME280;49071;0.000;0.000;2023-02-23T14:32:26;100421.94;;;19.05;33.99
62976;BME280;49071;0.000;0.000;2023-02-23T14:38:35;100432.09;;;18.96;33.84
62976;BME280;49071;0.000;0.000;2023-02-23T14:44:50;100431.91;;;18.83;34.14
62976;BME280;49071;0.000;0.000;2023-02-23T14:47:51;100432.34;;;18.75;34.09
62976;BME280;49071;0.000;0.000;2023-02-23T14:51:07;100430.09;;;18.68;34.12
62976;BME280;49071;0.000;0.000;2023-02-23T14:54:12;100434.91;;;18.59;34.38
62976;BME280;49071;0.000;0.000;2023-02-23T14:57:15;100433.53;;;18.52;34.70
62976;BME280;49071;0.000;0.000;2023-02-23T15:00:20;100425.13;;;18.46;34.59
62976;BME280;49071;0.000;0.000;2023-02-23T15:03:23;100427.22;;;18.39;34.64
62976;BME280;49071;0.000;0.000;2023-02-23T15:06:24;100423.00;;;18.36;34.67
62976;BME280;49071;0.000;0.000;2023-02-23T15:12:33;100420.22;;;18.39;34.67
62976;BME280;49071;0.000;0.000;2023-02-23T15:15:33;100425.22;;;18.44;34.77
62976;BME280;49071;0.000;0.000;2023-02-23T15:18:37;100422.44;;;18.47;34.64
62976;BME280;49071;0.000;0.000;2023-02-23T15:21:39;100410.78;;;18.53;34.80
62976;BME280;49071;0.000;0.000;2023-02-23T15:24:43;100411.25;;;18.59;34.58
62976;BME280;49071;0.000;0.000;2023-02-23T15:27:44;100420.53;;;18.67;34.52
62976;BME280;49071;0.000;0.000;2023-02-23T15:30:46;100416.56;;;18.75;34.43
62976;BME280;49071;0.000;0.000;2023-02-23T15:33:46;100409.88;;;18.85;34.29
62976;BME280;49071;0.000;0.000;2023-02-23T15:36:51;100415.81;;;18.89;34.64
62976;BME280;49071;0.000;0.000;2023-02-23T15:39:55;100412.19;;;18.92;34.07
62976;BME280;49071;0.000;0.000;2023-02-23T15:42:57;100418.97;;;18.96;34.32
62976;BME280;49071;0.000;0.000;2023-02-23T15:46:01;100408.63;;;18.93;34.46
62976;BME280;49071;0.000;0.000;2023-02-23T15:49:03;100409.22;;;18.98;34.47
62976;BME280;49071;0.000;0.000;2023-02-23T15:52:06;100413.81;;;18.94;34.34
62976;BME280;49071;0.000;0.000;2023-02-23T15:55:07;100407.88;;;18.91;34.28
62976;BME280;49071;0.000;0.000;2023-02-23T15:58:10;100409.72;;;18.88;34.71
62976;BME280;49071;0.000;0.000;2023-02-23T16:01:16;100410.84;;;18.84;34.64
62976;BME280;49071;0.000;0.000;2023-02-23T16:04:19;100413.63;;;18.81;35.00
62976;BME280;49071;0.000;0.000;2023-02-23T16:07:24;100412.09;;;18.77;34.97
62976;BME280;49071;0.000;0.000;2023-02-23T16:10:24;100406.28;;;18.71;34.89
62976;BME280;49071;0.000;0.000;2023-02-23T16:13:26;100408.25;;;18.67;35.17
62976;BME280;49071;0.000;0.000;2023-02-23T16:16:27;100398.84;;;18.63;35.46
62976;BME280;49071;0.000;0.000;2023-02-23T16:19:27;100399.84;;;18.60;35.48
62976;BME280;49071;0.000;0.000;2023-02-23T16:22:28;100406.19;;;18.56;35.16
62976;BME280;49071;0.000;0.000;2023-02-23T16:25:31;100410.78;;;18.53;35.32
62976;BME280;49071;0.000;0.000;2023-02-23T16:28:32;100406.59;;;18.49;35.56
62976;BME280;49071;0.000;0.000;2023-02-23T16:31:40;100406.91;;;18.42;35.84
62976;BME280;49071;0.000;0.000;2023-02-23T16:34:46;100404.47;;;18.39;36.02
62976;BME280;49071;0.000;0.000;2023-02-23T16:37:48;100410.72;;;18.37;35.98
62976;BME280;49071;0.000;0.000;2023-02-23T16:40:48;100403.25;;;18.29;36.03
62976;BME280;49071;0.000;0.000;2023-02-23T16:43:50;100404.31;;;18.25;36.44
62976;BME280;49071;0.000;0.000;2023-02-23T16:49:56;100407.44;;;18.16;36.59
62976;BME280;49071;0.000;0.000;2023-02-23T16:52:57;100394.53;;;18.11;36.39
62976;BME280;49071;0.000;0.000;2023-02-23T16:55:57;100405.97;;;18.10;36.88
62976;BME280;49071;0.000;0.000;2023-02-23T16:59:00;100404.97;;;18.13;36.67
62976;BME280;49071;0.000;0.000;2023-02-23T17:02:01;100403.88;;;18.17;36.84
62976;BME280;49071;0.000;0.000;2023-02-23T17:05:01;100403.56;;;18.23;36.43
62976;BME280;49071;0.000;0.000;2023-02-23T17:08:01;100406.94;;;18.25;36.57
62976;BME280;49071;0.000;0.000;2023-02-23T17:11:02;100400.63;;;18.29;36.62
62976;BME280;49071;0.000;0.000;2023-02-23T17:14:02;100403.00;;;18.34;36.43
62976;BME280;49071;0.000;0.000;2023-02-23T17:17:03;100402.53;;;18.43;36.40
62976;BME280;49071;0.000;0.000;2023-02-23T17:20:03;100404.63;;;18.52;36.32
62976;BME280;49071;0.000;0.000;2023-02-23T17:23:04;100412.72;;;18.65;36.20
62976;BME280;49071;0.000;0.000;2023-02-23T17:26:05;100408.69;;;18.75;36.12
62976;BME280;49071;0.000;0.000;2023-02-23T17:29:06;100411.09;;;18.80;35.92
62976;BME280;49071;0.000;0.000;2023-02-23T17:32:06;100409.31;;;18.80;35.74
62976;BME280;49071;0.000;0.000;2023-02-23T17:35:07;100407.69;;;18.78;36.00
62976;BME280;49071;0.000;0.000;2023-02-23T17:38:07;100410.22;;;18.79;36.18
62976;BME280;49071;0.000;0.000;2023-02-23T17:41:08;100403.28;;;18.78;36.02
62976;BME280;49071;0.000;0.000;2023-02-23T17:44:09;100400.06;;;18.73;36.16
62976;BME280;49071;0.000;0.000;2023-02-23T17:47:10;100400.97;;;18.72;35.99
62976;BME280;49071;0.000;0.000;2023-02-23T17:50:10;100401.97;;;18.70;36.18
62976;BME280;49071;0.000;0.000;2023-02-23T17:53:10;100403.84;;;18.68;36.15
62976;BME280;49071;0.000;0.000;2023-02-23T17:56:10;100398.91;;;18.61;36.20
62976;BME280;49071;0.000;0.000;2023-02-23T17:59:10;100397.44;;;18.56;36.46
62976;BME280;49071;0.000;0.000;2023-02-23T18:02:12;100402.00;;;18.52;36.38
62976;BME280;49071;0.000;0.000;2023-02-23T18:05:13;100405.75;;;18.48;36.63
62976;BME280;49071;0.000;0.000;2023-02-23T18:08:13;100404.22;;;18.44;36.53
62976;BME280;49071;0.000;0.000;2023-02-23T18:11:13;100405.47;;;18.37;36.77
62976;BME280;49071;0.000;0.000;2023-02-23T18:14:15;100402.84;;;18.37;36.85
62976;BME280;49071;0.000;0.000;2023-02-23T18:17:16;100396.41;;;18.42;36.84
62976;BME280;49071;0.000;0.000;2023-02-23T18:20:17;100397.03;;;18.48;36.54
62976;BME280;49071;0.000;0.000;2023-02-23T18:23:17;100400.00;;;18.57;36.52
62976;BME280;49071;0.000;0.000;2023-02-23T18:26:19;100392.53;;;18.65;36.51
62976;BME280;49071;0.000;0.000;2023-02-23T18:29:19;100395.56;;;18.75;36.32
62976;BME280;49071;0.000;0.000;2023-02-23T18:32:19;100388.88;;;18.85;36.16
62976;BME280;49071;0.000;0.000;2023-02-23T18:35:20;100397.03;;;18.97;36.26
62976;BME280;49071;0.000;0.000;2023-02-23T18:38:20;100393.03;;;19.05;36.15
62976;BME280;49071;0.000;0.000;2023-02-23T18:41:20;100392.41;;;19.16;35.77
62976;BME280;49071;0.000;0.000;2023-02-23T18:44:21;100388.50;;;19.23;35.49
62976;BME280;49071;0.000;0.000;2023-02-23T18:47:22;100393.41;;;19.29;35.67
62976;BME280;49071;0.000;0.000;2023-02-23T18:50:23;100387.91;;;19.34;35.31
62976;BME280;49071;0.000;0.000;2023-02-23T18:53:25;100394.88;;;19.35;35.65
62976;BME280;49071;0.000;0.000;2023-02-23T18:56:26;100392.41;;;19.32;35.60
62976;BME280;49071;0.000;0.000;2023-02-23T18:59:27;100389.94;;;19.29;35.83
62976;BME280;49071;0.000;0.000;2023-02-23T19:02:27;100382.22;;;19.26;35.68
62976;BME280;49071;0.000;0.000;2023-02-23T19:05:27;100388.44;;;19.25;35.79
62976;BME280;49071;0.000;0.000;2023-02-23T19:08:27;100379.19;;;19.18;35.62
62976;BME280;49071;0.000;0.000;2023-02-23T19:11:30;100382.00;;;19.15;36.04
62976;BME280;49071;0.000;0.000;2023-02-23T19:14:30;100377.84;;;19.10;35.89
62976;BME280;49071;0.000;0.000;2023-02-23T19:17:31;100368.53;;;19.05;36.08
62976;BME280;49071;0.000;0.000;2023-02-23T19:20:31;100363.53;;;19.00;36.33
62976;BME280;49071;0.000;0.000;2023-02-23T19:23:35;100377.94;;;18.93;36.13
62976;BME280;49071;0.000;0.000;2023-02-23T19:26:36;100375.66;;;18.87;36.55
62976;BME280;49071;0.000;0.000;2023-02-23T19:29:37;100378.63;;;18.81;36.27
62976;BME280;49071;0.000;0.000;2023-02-23T19:32:37;100372.75;;;18.76;36.42
62976;BME280;49071;0.000;0.000;2023-02-23T19:35:39;100370.47;;;18.70;36.56
62976;BME280;49071;0.000;0.000;2023-02-23T19:38:39;100365.44;;;18.65;36.76
62976;BME280;49071;0.000;0.000;2023-02-23T19:41:42;100367.47;;;18.60;36.70
62976;BME280;49071;0.000;0.000;2023-02-23T19:44:43;100362.63;;;18.52;37.05
62976;BME280;49071;0.000;0.000;2023-02-23T19:47:43;100368.03;;;18.49;36.89
62976;BME280;49071;0.000;0.000;2023-02-23T19:50:45;100373.53;;;18.45;36.96
62976;BME280;49071;0.000;0.000;2023-02-23T19:53:46;100371.19;;;18.40;37.24
62976;BME280;49071;0.000;0.000;2023-02-23T19:56:46;100374.91;;;18.36;37.53
62976;BME280;49071;0.000;0.000;2023-02-23T19:59:48;100373.03;;;18.38;37.10
62976;BME280;49071;0.000;0.000;2023-02-23T20:02:50;100372.09;;;18.39;37.39
62976;BME280;49071;0.000;0.000;2023-02-23T20:05:56;100361.25;;;18.45;37.73
62976;BME280;49071;0.000;0.000;2023-02-23T20:08:57;100360.94;;;18.51;37.42
62976;BME280;49071;0.000;0.000;2023-02-23T20:11:57;100363.28;;;18.56;37.41
62976;BME280;49071;0.000;0.000;2023-02-23T20:14:57;100357.56;;;18.65;37.33
62976;BME280;49071;0.000;0.000;2023-02-23T20:17:58;100366.81;;;18.72;37.39
62976;BME280;49071;0.000;0.000;2023-02-23T20:20:58;100363.03;;;18.78;37.40
62976;BME280;49071;0.000;0.000;2023-02-23T20:23:58;100365.38;;;18.82;37.25
62976;BME280;49071;0.000;0.000;2023-02-23T20:27:00;100370.81;;;18.95;37.16
62976;BME280;49071;0.000;0.000;2023-02-23T20:30:00;100360.63;;;19.05;36.93
62976;BME280;49071;0.000;0.000;2023-02-23T20:33:02;100362.75;;;19.14;37.25
62976;BME280;49071;0.000;0.000;2023-02-23T20:36:04;100362.59;;;19.17;36.95
62976;BME280;49071;0.000;0.000;2023-02-23T20:39:04;100358.91;;;19.20;37.07
62976;BME280;49071;0.000;0.000;2023-02-23T20:42:05;100356.38;;;19.18;36.93
62976;BME280;49071;0.000;0.000;2023-02-23T20:45:05;100348.66;;;19.15;36.85
62976;BME280;49071;0.000;0.000;2023-02-23T20:48:05;100353.94;;;19.15;36.80
62976;BME280;49071;0.000;0.000;2023-02-23T20:51:08;100350.78;;;19.08;36.98
62976;BME280;49071;0.000;0.000;2023-02-23T20:54:11;100348.16;;;19.08;37.15
62976;BME280;49071;0.000;0.000;2023-02-23T20:57:12;100341.47;;;19.03;36.94
62976;BME280;49071;0.000;0.000;2023-02-23T21:00:12;100345.22;;;18.99;37.14
62976;BME280;49071;0.000;0.000;2023-02-23T21:03:16;100343.69;;;18.95;36.99
